createdAt,value
2022-09-30T08:32:07.029Z,10.65
2022-09-30T08:33:08.530Z,10.40
2022-09-30T08:44:25.141Z,11.21
2022-09-30T08:45:51.754Z,11.40
2022-09-30T08:49:20.602Z,11.62
2022-09-30T08:50:49.440Z,11.65
2022-09-30T08:51:53.725Z,11.97
2022-09-30T08:53:01.194Z,12.41
2022-09-30T08:54:09.473Z,12.30
2022-09-30T09:02:21.383Z,14.34
2022-09-30T09:03:28.213Z,14.81
2022-09-30T09:04:29.645Z,15.12
2022-09-30T09:05:42.297Z,15.18
2022-09-30T09:13:41.324Z,14.67
2022-09-30T09:15:20.709Z,15.06
2022-09-30T09:16:38.076Z,15.75
2022-09-30T09:18:29.144Z,16.19
2022-09-30T09:19:38.478Z,16.33
2022-09-30T09:20:55.104Z,17.01
2022-09-30T09:22:01.800Z,16.91
2022-09-30T09:23:08.945Z,16.75
2022-09-30T09:24:19.676Z,16.24
2022-09-30T09:25:27.984Z,15.74
2022-09-30T09:26:36.605Z,15.61
2022-09-30T09:28:09.670Z,15.59
2022-09-30T09:29:20.212Z,15.21
2022-09-30T09:30:24.059Z,15.41
2022-09-30T09:31:25.935Z,15.55
2022-09-30T09:32:28.099Z,15.54
2022-09-30T09:33:38.615Z,14.71
2022-09-30T09:34:41.453Z,14.67
2022-09-30T09:35:52.780Z,14.85
2022-09-30T09:37:15.059Z,14.93
2022-09-30T09:39:02.197Z,14.38
2022-09-30T09:40:11.809Z,15.17
2022-09-30T09:41:15.776Z,15.91
2022-09-30T09:42:31.831Z,16.94
2022-09-30T09:55:05.259Z,15.23
2022-09-30T09:56:20.897Z,15.79
2022-09-30T09:57:32.046Z,15.77
2022-09-30T09:58:34.174Z,16.29
2022-09-30T09:59:36.506Z,15.28
2022-09-30T10:00:47.338Z,15.77
2022-09-30T10:01:51.931Z,15.64
2022-09-30T10:03:12.565Z,16.39
2022-09-30T10:04:24.622Z,17.05
2022-09-30T10:05:26.986Z,17.38
2022-09-30T10:06:44.230Z,17.51
2022-09-30T10:07:45.594Z,17.18
2022-09-30T10:08:55.478Z,17.07
2022-09-30T10:10:19.610Z,15.77
2022-09-30T10:11:26.124Z,14.98
2022-09-30T10:12:28.772Z,14.71
2022-09-30T10:13:35.498Z,15.00
2022-09-30T10:14:46.886Z,13.96
2022-09-30T10:15:50.918Z,13.34
2022-09-30T10:16:59.754Z,13.52
2022-09-30T10:18:01.164Z,13.77
2022-09-30T10:19:09.496Z,14.32
2022-09-30T10:20:33.420Z,15.07
2022-09-30T10:21:35.008Z,15.99
2022-09-30T10:22:36.841Z,17.91
2022-09-30T10:23:40.290Z,17.65
2022-09-30T10:24:41.896Z,18.21
2022-09-30T10:37:15.975Z,24.30
2022-09-30T10:38:17.466Z,24.35
2022-09-30T10:39:30.771Z,22.15
2022-09-30T10:40:32.190Z,22.30
2022-09-30T10:41:35.900Z,23.23
2022-09-30T10:42:40.774Z,23.96
2022-09-30T10:43:44.883Z,23.58
2022-09-30T10:44:49.438Z,22.72
2022-09-30T10:46:13.423Z,22.50
2022-09-30T10:47:16.991Z,23.31
2022-09-30T10:48:23.257Z,23.80
2022-09-30T10:49:32.048Z,24.41
2022-09-30T10:50:33.670Z,25.58
2022-09-30T10:51:36.272Z,26.12
2022-09-30T10:52:44.605Z,26.01
2022-09-30T10:53:45.979Z,25.46
2022-09-30T10:55:01.990Z,25.13
2022-09-30T10:56:05.376Z,20.34
2022-09-30T10:57:15.630Z,18.40
2022-09-30T10:58:35.657Z,16.90
2022-09-30T10:59:39.254Z,16.89
2022-09-30T11:00:44.796Z,16.31
2022-09-30T11:07:04.329Z,16.05
2022-09-30T11:08:23.101Z,15.79
2022-09-30T11:09:37.814Z,15.12
2022-09-30T11:11:13.748Z,14.73
2022-09-30T11:12:20.040Z,14.83
2022-09-30T11:13:43.573Z,14.64
2022-09-30T11:14:58.092Z,15.00
2022-09-30T11:16:12.522Z,17.10
2022-09-30T11:17:25.641Z,19.40
2022-09-30T11:24:04.925Z,21.13
2022-09-30T11:25:11.027Z,18.03
2022-09-30T11:26:25.998Z,18.76
2022-09-30T11:28:16.930Z,18.24
2022-09-30T11:29:26.972Z,20.16
2022-09-30T11:30:49.387Z,19.69
2022-09-30T11:32:08.668Z,19.60
2022-09-30T11:33:31.171Z,19.93
2022-09-30T11:34:49.045Z,19.35
2022-09-30T11:36:31.455Z,19.53
2022-09-30T11:38:00.607Z,19.17
2022-09-30T11:39:14.469Z,18.23
2022-09-30T11:40:38.323Z,18.89
2022-09-30T11:41:48.688Z,19.06
2022-09-30T11:43:07.406Z,19.28
2022-09-30T11:44:28.129Z,18.95
2022-09-30T11:46:00.255Z,18.89
2022-09-30T11:47:13.497Z,19.36
2022-09-30T11:48:33.301Z,17.69
2022-09-30T11:50:06.761Z,17.96
2022-09-30T11:51:29.457Z,17.88
2022-09-30T11:53:12.298Z,18.47
2022-09-30T11:54:59.930Z,18.76
2022-09-30T11:56:16.498Z,20.10
2022-09-30T11:57:32.262Z,20.28
2022-09-30T11:58:41.990Z,20.81
2022-09-30T11:59:50.589Z,21.44
2022-09-30T12:06:03.518Z,17.97
2022-09-30T12:07:22.533Z,18.18
2022-09-30T12:08:35.585Z,18.92
2022-09-30T12:09:46.560Z,17.62
2022-09-30T12:10:55.648Z,18.42
2022-09-30T12:12:02.840Z,17.55
2022-09-30T12:24:42.088Z,18.68
2022-09-30T12:25:59.393Z,19.14
2022-09-30T12:27:01.901Z,19.33
2022-09-30T12:28:48.503Z,19.56
2022-09-30T12:43:30.288Z,17.64
2022-09-30T12:44:52.521Z,17.54
2022-09-30T12:45:55.030Z,16.81
2022-09-30T12:47:08.429Z,16.02
2022-09-30T12:48:18.584Z,15.19
2022-09-30T12:49:25.018Z,15.41
2022-09-30T12:50:44.372Z,16.35
2022-09-30T12:51:51.008Z,17.17
2022-09-30T12:52:52.552Z,17.63
2022-09-30T12:54:13.820Z,17.88
2022-09-30T12:55:39.069Z,17.88
2022-09-30T12:56:48.838Z,17.91
2022-09-30T12:57:51.958Z,18.20
2022-09-30T12:58:54.525Z,18.13
2022-09-30T13:00:01.634Z,17.59
2022-09-30T13:01:07.973Z,17.59
2022-09-30T13:02:31.785Z,17.56
2022-09-30T13:03:57.235Z,17.46
2022-09-30T13:05:26.755Z,16.44
2022-09-30T13:06:48.039Z,16.85
2022-09-30T13:08:04.900Z,16.66
2022-09-30T13:09:19.331Z,15.84
2022-09-30T13:10:34.228Z,15.95
2022-09-30T13:11:46.056Z,15.90
2022-09-30T13:12:48.192Z,16.33
2022-09-30T13:14:46.568Z,16.80
2022-09-30T13:15:48.148Z,16.64
2022-09-30T13:17:07.997Z,16.09
2022-09-30T13:18:21.472Z,16.19
2022-09-30T13:19:33.712Z,16.51
2022-09-30T13:21:00.774Z,16.83
2022-09-30T13:22:29.658Z,17.08
2022-09-30T13:24:00.229Z,17.32
2022-09-30T13:25:04.535Z,17.13
2022-09-30T13:26:27.460Z,16.45
2022-09-30T13:27:34.585Z,16.59
2022-09-30T13:28:39.535Z,16.16
2022-09-30T13:35:02.016Z,16.17
2022-09-30T13:36:08.103Z,14.95
2022-09-30T13:37:35.366Z,15.65
2022-09-30T13:38:40.354Z,15.92
2022-09-30T13:39:54.336Z,16.15
2022-09-30T13:41:03.222Z,15.77
2022-09-30T13:42:27.317Z,15.86
2022-09-30T13:43:43.523Z,15.28
2022-09-30T13:44:57.635Z,14.67
2022-09-30T13:46:24.898Z,14.75
2022-09-30T13:47:39.459Z,14.81
2022-09-30T13:48:48.395Z,14.78
2022-09-30T13:50:00.175Z,15.10
2022-09-30T13:51:08.601Z,14.95
2022-09-30T13:52:22.316Z,15.14
2022-09-30T13:53:35.594Z,15.11
2022-09-30T13:54:46.001Z,15.54
2022-09-30T13:55:50.160Z,15.88
2022-09-30T13:56:51.622Z,15.84
2022-09-30T13:58:12.483Z,15.54
2022-09-30T13:59:36.036Z,15.91
2022-09-30T14:01:16.923Z,15.76
2022-09-30T14:02:51.316Z,15.66
2022-09-30T14:10:57.072Z,14.64
2022-09-30T14:12:19.728Z,14.06
2022-09-30T14:13:27.643Z,14.24
2022-09-30T14:15:04.989Z,14.15
2022-09-30T14:22:53.281Z,15.55
2022-09-30T14:24:20.177Z,15.60
2022-09-30T14:25:22.992Z,15.44
2022-09-30T14:26:53.435Z,15.55
2022-09-30T14:28:18.323Z,15.47
2022-09-30T14:29:44.166Z,16.73
2022-09-30T14:31:08.115Z,17.68
2022-09-30T14:32:18.649Z,17.67
2022-09-30T14:33:25.905Z,17.23
2022-09-30T14:34:29.405Z,17.29
2022-09-30T14:35:33.840Z,17.72
2022-09-30T14:36:35.179Z,17.88
2022-09-30T14:37:45.365Z,17.66
2022-09-30T14:38:51.263Z,17.81
2022-09-30T14:39:53.013Z,17.98
2022-09-30T14:41:01.648Z,17.80
2022-09-30T14:42:03.192Z,17.59
2022-09-30T14:43:07.433Z,17.68
2022-09-30T14:44:17.064Z,17.19
2022-09-30T14:45:26.807Z,17.02
2022-09-30T14:46:37.913Z,17.20
2022-09-30T14:47:51.853Z,16.88
2022-09-30T14:48:55.508Z,16.94
2022-09-30T14:49:57.809Z,16.99
2022-09-30T14:51:10.771Z,16.84
2022-09-30T14:52:44.932Z,16.59
2022-09-30T14:54:00.783Z,16.31
2022-09-30T14:55:02.269Z,16.10
2022-09-30T14:56:18.484Z,16.14
2022-09-30T14:57:19.874Z,15.98
2022-09-30T15:06:56.935Z,16.68
2022-09-30T15:07:58.305Z,17.21
2022-09-30T15:09:06.753Z,17.22
2022-09-30T15:17:00.360Z,16.32
2022-09-30T15:18:24.076Z,17.52
2022-09-30T15:19:28.797Z,17.61
2022-09-30T15:20:34.790Z,17.20
2022-09-30T15:21:36.621Z,17.17
2022-09-30T15:22:38.048Z,17.81
2022-09-30T15:23:44.670Z,17.42
2022-09-30T15:24:47.678Z,17.11
2022-09-30T15:25:49.188Z,16.86
2022-09-30T15:26:53.247Z,16.18
2022-09-30T15:27:54.932Z,15.88
2022-09-30T15:34:04.961Z,17.62
2022-09-30T15:35:16.999Z,18.32
2022-09-30T15:36:18.869Z,18.66
2022-09-30T15:37:23.671Z,18.40
2022-09-30T15:38:27.360Z,18.12
2022-09-30T15:39:50.532Z,17.91
2022-09-30T15:41:12.707Z,18.50
2022-09-30T15:42:27.754Z,18.64
2022-09-30T15:43:38.417Z,18.67
2022-09-30T15:44:39.998Z,18.68
2022-09-30T15:45:43.969Z,18.81
2022-09-30T15:47:05.315Z,18.40
2022-09-30T15:48:07.990Z,18.70
2022-09-30T15:49:45.332Z,18.81
2022-09-30T15:50:55.194Z,18.77
2022-09-30T15:59:07.879Z,18.06
2022-09-30T16:00:36.530Z,18.14
2022-09-30T16:01:47.773Z,17.28
2022-09-30T16:02:49.283Z,16.71
2022-09-30T16:04:00.016Z,16.20
2022-09-30T16:10:03.799Z,16.13
2022-09-30T16:11:08.528Z,16.03
2022-09-30T16:12:13.001Z,16.00
2022-09-30T16:13:15.699Z,15.87
2022-09-30T16:14:24.509Z,15.87
2022-09-30T16:27:34.083Z,16.45
2022-09-30T16:28:35.455Z,16.35
2022-09-30T16:29:37.496Z,16.19
2022-09-30T16:30:45.933Z,16.19
2022-09-30T16:31:49.912Z,15.83
2022-09-30T16:32:55.983Z,15.59
2022-09-30T17:16:38.596Z,11.69
